Terminal Aerodrome Forecast
Issued by NWS

Home | Current Version | Previous Version | Text Only | Print | Product List | Glossary On
Versions: 1 2 3 4 5 6 7 8 9 10 11 12 13 14 15 16 17 18 19 20 21 22 23 24 25 26 27 28
000
FTUS41 KBGM 230206 AAA
TAFELM
TAF AMD
KELM 230206Z 2302/2324 10006KT P6SM OVC018
      TEMPO 2302/2304 2SM BR BKN005
     FM230500 VRB03KT 1/2SM FG VV002
     FM230800 10010G18KT P6SM OVC015
     FM231200 09010G20KT P6SM -RA OVC015
     FM231800 07012G23KT 5SM -RASN OVC015=

USA.gov is the U.S. government's official web portal to all federal, state and local government web resources and services.